Time;durP1;ratioP1;P1;durP2;ratioP2;P2;SDS_P1;SDS_P2;PMS_P1;PMS_P2;Temp;Humidity;BMP_temperature;BMP_pressure;BME280_temperature;BME280_humidity;BME280_pressure;Samples;Min_cycle;Max_cycle;Signal;HPM_P1;HPM_P2
2022/08/01 00:00:08;;;;;;;1.20;1.20;;;26.20;59.70;;;;;;5106905;27;43917;-70
2022/08/01 00:02:37;;;;;;;1.50;1.50;;;26.10;60.00;;;;;;5088673;27;46058;-69
2022/08/01 00:05:06;;;;;;;1.30;1.30;;;26.00;60.20;;;;;;5113845;27;43901;-69
2022/08/01 00:07:37;;;;;;;1.27;1.27;;;25.90;60.90;;;;;;5114139;27;43943;-69
2022/08/01 00:10:08;;;;;;;1.40;1.40;;;25.70;61.50;;;;;;5113792;27;43885;-69
2022/08/01 00:12:35;;;;;;;1.40;1.40;;;25.70;61.40;;;;;;5113634;27;43820;-70
2022/08/01 00:15:05;;;;;;;1.35;1.35;;;25.80;61.10;;;;;;5113892;27;43987;-70
2022/08/01 00:17:33;;;;;;;1.33;1.33;;;25.90;60.90;;;;;;5113348;27;44010;-70
2022/08/01 00:20:02;;;;;;;1.10;1.10;;;26.00;60.40;;;;;;5113408;27;43745;-70
2022/08/01 00:22:31;;;;;;;1.20;1.20;;;26.00;60.30;;;;;;5113440;27;44027;-69
2022/08/01 00:24:59;;;;;;;1.33;1.33;;;26.00;60.60;;;;;;5094919;27;43955;-70
2022/08/01 00:27:28;;;;;;;1.35;1.35;;;25.90;60.90;;;;;;5094936;27;43450;-68
2022/08/01 00:29:56;;;;;;;1.20;1.20;;;25.80;61.40;;;;;;5112889;27;43994;-70
2022/08/01 00:32:41;;;;;;;1.30;1.30;;;25.70;61.50;;;;;;5113292;27;43885;-70
2022/08/01 00:35:09;;;;;;;1.40;1.40;;;25.60;61.60;;;;;;5113153;27;44011;-70
2022/08/01 00:37:37;;;;;;;1.40;1.40;;;25.60;62.00;;;;;;5113635;27;43960;-70
2022/08/01 00:40:06;;;;;;;1.33;1.33;;;25.50;62.50;;;;;;5113196;27;43912;-70
2022/08/01 00:42:36;;;;;;;1.27;1.27;;;25.50;62.40;;;;;;5112862;27;43938;-69
2022/08/01 00:45:10;;;;;;;1.27;1.27;;;25.60;62.00;;;;;;5079745;27;43373;-69
2022/08/01 00:47:39;;;;;;;1.27;1.27;;;25.70;61.60;;;;;;5094379;27;44326;-70
2022/08/01 00:50:07;;;;;;;1.30;1.30;;;25.80;61.30;;;;;;5093437;27;43900;-70
2022/08/01 00:52:38;;;;;;;1.20;1.20;;;25.80;61.50;;;;;;5092974;27;44107;-69
2022/08/01 00:55:06;;;;;;;1.30;1.30;;;25.80;61.40;;;;;;5093587;27;43885;-68
2022/08/01 00:57:35;;;;;;;1.30;1.30;;;25.60;62.00;;;;;;5093989;27;43969;-69
2022/08/01 01:00:23;;;;;;;1.10;1.10;;;25.60;62.10;;;;;;5093343;27;44643;-69
2022/08/01 01:02:54;;;;;;;1.30;1.30;;;25.50;62.20;;;;;;5093415;27;43956;-68
2022/08/01 01:05:23;;;;;;;1.27;1.27;;;25.50;62.10;;;;;;5093381;27;43980;-69
2022/08/01 01:07:54;;;;;;;1.10;1.10;;;25.40;62.90;;;;;;5093652;27;43881;-69
2022/08/01 01:10:25;;;;;;;1.40;1.40;;;25.40;63.00;;;;;;5074644;28;45699;-69
2022/08/01 01:12:56;;;;;;;1.20;1.20;;;25.40;63.00;;;;;;5093322;27;43871;-69
2022/08/01 01:15:27;;;;;;;1.40;1.40;;;25.30;62.90;;;;;;5083392;27;44089;-70
2022/08/01 01:17:58;;;;;;;1.20;1.20;;;25.30;63.40;;;;;;5095991;27;43920;-69
2022/08/01 01:20:28;;;;;;;1.27;1.27;;;25.30;63.60;;;;;;5090726;27;44159;-70
2022/08/01 01:23:07;;;;;;;1.30;1.30;;;25.30;63.40;;;;;;5108464;27;43873;-69
2022/08/01 01:25:52;;;;;;;1.20;1.20;;;25.50;63.00;;;;;;5092398;27;44002;-69
2022/08/01 01:28:24;;;;;;;1.10;1.10;;;25.60;63.00;;;;;;5109596;27;44054;-69
2022/08/01 01:30:54;;;;;;;1.40;1.40;;;25.70;62.10;;;;;;5109211;27;43947;-70
2022/08/01 01:33:31;;;;;;;1.20;1.20;;;25.60;62.00;;;;;;5089344;27;43445;-69
2022/08/01 01:36:01;;;;;;;1.27;1.27;;;25.60;62.30;;;;;;5083640;27;43822;-69
2022/08/01 01:38:30;;;;;;;1.20;1.20;;;25.50;62.70;;;;;;5089756;27;43996;-70
2022/08/01 01:40:58;;;;;;;1.20;1.20;;;25.50;62.70;;;;;;5089176;27;43948;-70
2022/08/01 01:43:26;;;;;;;1.10;1.10;;;25.50;62.70;;;;;;5088932;27;43898;-70
2022/08/01 01:46:01;;;;;;;1.30;1.30;;;25.40;62.80;;;;;;5089454;27;44039;-69
2022/08/01 01:48:29;;;;;;;1.23;1.23;;;25.30;63.50;;;;;;5089560;27;43967;-69
2022/08/01 01:50:57;;;;;;;1.20;1.20;;;25.30;63.50;;;;;;5070840;27;45378;-70
2022/08/01 01:53:25;;;;;;;1.40;1.40;;;25.40;63.40;;;;;;5089088;27;43400;-69
2022/08/01 01:55:56;;;;;;;1.20;1.20;;;25.50;62.90;;;;;;5089091;27;43395;-70
2022/08/01 01:58:24;;;;;;;1.20;1.20;;;25.60;62.40;;;;;;5089433;27;43977;-70
2022/08/01 02:00:53;;;;;;;1.30;1.30;;;25.70;62.30;;;;;;5070652;27;46207;-68
2022/08/01 02:03:22;;;;;;;1.13;1.13;;;25.70;62.20;;;;;;5088495;27;44200;-69
2022/08/01 02:05:50;;;;;;;1.10;1.10;;;25.60;62.10;;;;;;5088718;27;43943;-68
2022/08/01 02:08:19;;;;;;;1.15;1.15;;;25.50;62.70;;;;;;5089473;27;44019;-70
2022/08/01 02:11:17;;;;;;;1.23;1.23;;;25.50;63.00;;;;;;5070619;27;46271;-69
2022/08/01 02:13:39;;;;;;;1.27;1.27;;;25.50;63.00;;;;;;5088631;27;43991;-69
2022/08/01 02:16:07;;;;;;;1.20;1.20;;;25.40;63.00;;;;;;5089186;27;43396;-69
2022/08/01 02:18:36;;;;;;;1.13;1.13;;;25.40;64.10;;;;;;5089296;27;43981;-70
2022/08/01 02:21:05;;;;;;;1.20;1.20;;;25.30;63.80;;;;;;5088799;27;43932;-70
2022/08/01 02:23:33;;;;;;;1.10;1.10;;;25.30;63.80;;;;;;5089975;27;44037;-69
2022/08/01 02:26:02;;;;;;;1.20;1.20;;;25.30;63.70;;;;;;5088596;27;43916;-69
2022/08/01 02:28:39;;;;;;;1.17;1.17;;;25.20;64.00;;;;;;5089162;27;43889;-69
2022/08/01 02:31:09;;;;;;;1.20;1.20;;;25.20;65.00;;;;;;5082510;27;43991;-69
2022/08/01 02:33:39;;;;;;;1.23;1.23;;;25.30;64.20;;;;;;5088625;27;43308;-69
2022/08/01 02:36:08;;;;;;;1.30;1.30;;;25.30;63.70;;;;;;5088595;27;43952;-68
2022/08/01 02:38:57;;;;;;;1.20;1.13;;;25.50;63.40;;;;;;5088932;27;43442;-68
2022/08/01 02:41:25;;;;;;;1.20;1.20;;;25.60;63.00;;;;;;5069437;28;45995;-70
2022/08/01 02:43:53;;;;;;;1.30;1.30;;;25.60;62.70;;;;;;5088045;27;44038;-69
2022/08/01 02:46:23;;;;;;;1.27;1.27;;;25.50;62.70;;;;;;5088478;27;44047;-69
2022/08/01 02:48:53;;;;;;;1.30;1.30;;;25.50;63.30;;;;;;5088740;27;43975;-70
2022/08/01 02:51:22;;;;;;;1.20;1.20;;;25.40;64.10;;;;;;5088127;27;43967;-70
2022/08/01 02:53:51;;;;;;;1.20;1.20;;;25.40;63.50;;;;;;5088293;27;43658;-68
2022/08/01 02:56:20;;;;;;;1.00;1.00;;;25.30;63.30;;;;;;5069894;28;43957;-69
2022/08/01 02:58:48;;;;;;;1.10;1.10;;;25.30;63.80;;;;;;5088624;27;43850;-68
2022/08/01 03:01:17;;;;;;;1.03;1.03;;;25.30;64.10;;;;;;5088400;27;44029;-70
2022/08/01 03:03:46;;;;;;;1.13;1.13;;;25.30;63.90;;;;;;5088211;27;44035;-69
2022/08/01 03:06:16;;;;;;;1.47;1.30;;;25.40;63.60;;;;;;5088532;27;43382;-69
2022/08/01 03:08:44;;;;;;;1.10;1.10;;;25.50;63.20;;;;;;5070204;28;44050;-70
2022/08/01 03:11:12;;;;;;;1.30;1.30;;;25.60;62.90;;;;;;5087719;27;43932;-70
2022/08/01 03:13:43;;;;;;;1.10;1.10;;;25.60;62.80;;;;;;5069346;28;45298;-70
2022/08/01 03:16:11;;;;;;;1.10;1.10;;;25.50;62.80;;;;;;5088128;27;43905;-69
2022/08/01 03:18:39;;;;;;;1.17;1.17;;;25.50;63.40;;;;;;5088380;27;44046;-69
2022/08/01 03:21:08;;;;;;;1.10;1.10;;;25.40;63.50;;;;;;5087821;27;45145;-70
2022/08/01 03:23:40;;;;;;;0.93;0.93;;;25.40;63.50;;;;;;5107774;27;43976;-70
2022/08/01 03:26:08;;;;;;;1.17;1.17;;;25.30;63.50;;;;;;5081050;27;43933;-69
2022/08/01 03:28:36;;;;;;;1.17;1.17;;;25.30;64.10;;;;;;5081386;27;44017;-69
2022/08/01 03:31:06;;;;;;;1.07;1.07;;;25.30;64.10;;;;;;5087592;27;44774;-69
2022/08/01 03:33:34;;;;;;;1.17;1.17;;;25.30;64.10;;;;;;5069406;27;43886;-69
2022/08/01 03:36:02;;;;;;;1.10;1.10;;;25.20;63.90;;;;;;5069526;27;43826;-70
2022/08/01 03:38:30;;;;;;;1.10;1.10;;;25.20;64.60;;;;;;5087026;27;44108;-69
2022/08/01 03:41:02;;;;;;;1.07;1.07;;;25.20;64.60;;;;;;5087414;27;44031;-70
2022/08/01 03:43:36;;;;;;;1.30;1.30;;;25.30;64.40;;;;;;5087172;27;44005;-69
2022/08/01 03:46:08;;;;;;;1.10;1.10;;;25.30;63.90;;;;;;5069109;27;43972;-70
2022/08/01 03:48:38;;;;;;;1.10;1.10;;;25.50;63.60;;;;;;5087918;27;44015;-69
2022/08/01 03:51:06;;;;;;;1.13;1.13;;;25.50;63.30;;;;;;5068655;27;44368;-69
2022/08/01 03:53:34;;;;;;;1.20;1.20;;;25.50;63.20;;;;;;5068699;27;44776;-70
2022/08/01 03:56:04;;;;;;;1.00;1.00;;;25.50;63.40;;;;;;5087422;27;44059;-69
2022/08/01 03:58:32;;;;;;;1.17;1.17;;;25.40;64.60;;;;;;5087828;27;44022;-69
2022/08/01 04:01:00;;;;;;;1.00;1.00;;;25.40;63.80;;;;;;5087256;27;43616;-69
2022/08/01 04:03:28;;;;;;;1.00;1.00;;;25.30;63.60;;;;;;5102046;27;43945;-70
2022/08/01 04:05:56;;;;;;;1.20;1.20;;;25.30;63.70;;;;;;5088487;27;43949;-69
2022/08/01 04:08:24;;;;;;;1.20;1.20;;;25.30;64.50;;;;;;5107015;27;43842;-70
2022/08/01 04:10:58;;;;;;;1.20;1.20;;;25.30;64.50;;;;;;5106866;27;43670;-70
2022/08/01 04:13:30;;;;;;;1.00;1.00;;;25.30;64.20;;;;;;5103059;27;43450;-69
2022/08/01 04:16:05;;;;;;;1.20;1.20;;;25.40;63.80;;;;;;5105702;27;43951;-69
2022/08/01 04:18:34;;;;;;;1.10;1.10;;;25.50;63.50;;;;;;5107331;27;43398;-69
2022/08/01 04:21:02;;;;;;;1.07;1.07;;;25.50;63.30;;;;;;5088058;27;44004;-70
2022/08/01 04:23:36;;;;;;;1.10;1.10;;;25.50;63.20;;;;;;5087135;27;43992;-70
2022/08/01 04:26:06;;;;;;;0.80;0.80;;;25.40;63.90;;;;;;5087289;27;43824;-69
2022/08/01 04:28:39;;;;;;;1.20;1.20;;;25.40;63.90;;;;;;5087424;27;44014;-69
2022/08/01 04:31:10;;;;;;;1.00;1.00;;;25.30;63.80;;;;;;5086990;27;43940;-69
2022/08/01 04:33:42;;;;;;;1.00;1.00;;;25.30;63.80;;;;;;5068589;27;43983;-69
2022/08/01 04:36:11;;;;;;;1.00;1.00;;;25.20;64.50;;;;;;5094954;27;43785;-69
2022/08/01 04:38:39;;;;;;;1.23;1.23;;;25.20;64.50;;;;;;5107002;27;43865;-70
2022/08/01 04:41:07;;;;;;;1.13;1.13;;;25.20;64.40;;;;;;5106360;27;43962;-70
2022/08/01 04:43:38;;;;;;;1.00;1.00;;;25.20;64.20;;;;;;5106380;27;44543;-69
2022/08/01 04:46:11;;;;;;;1.00;1.00;;;25.10;65.00;;;;;;5106292;27;43979;-69
2022/08/01 04:48:39;;;;;;;0.90;0.90;;;25.10;64.90;;;;;;5106967;27;44000;-68
2022/08/01 04:51:12;;;;;;;0.90;0.90;;;25.20;64.60;;;;;;5109934;27;45137;-69
2022/08/01 04:53:40;;;;;;;0.93;0.93;;;25.30;64.30;;;;;;5110030;27;43499;-69
2022/08/01 04:56:08;;;;;;;1.10;1.10;;;25.50;64.70;;;;;;5093664;27;43928;-69
2022/08/01 04:58:37;;;;;;;1.10;1.10;;;25.50;63.60;;;;;;5107341;27;44016;-70
2022/08/01 05:01:09;;;;;;;1.10;1.10;;;25.50;63.60;;;;;;5109906;27;44834;-69
2022/08/01 05:03:37;;;;;;;1.10;1.10;;;25.50;63.50;;;;;;5103252;27;43956;-70
2022/08/01 05:06:06;;;;;;;1.13;1.13;;;25.40;64.10;;;;;;5110047;27;43967;-70
2022/08/01 05:08:35;;;;;;;1.03;1.03;;;25.30;64.10;;;;;;5110448;27;43948;-70
2022/08/01 05:11:06;;;;;;;0.90;0.90;;;25.30;64.20;;;;;;5109513;27;43961;-69
2022/08/01 05:13:34;;;;;;;1.10;1.10;;;25.30;64.10;;;;;;5109658;27;44001;-69
2022/08/01 05:16:03;;;;;;;1.20;1.20;;;25.20;64.60;;;;;;5091155;27;43769;-69
2022/08/01 05:18:33;;;;;;;1.00;1.00;;;25.20;64.80;;;;;;5110306;27;44054;-69
2022/08/01 05:21:02;;;;;;;1.37;1.37;;;25.20;64.80;;;;;;5109621;27;45058;-69
2022/08/01 05:23:29;;;;;;;1.00;1.00;;;25.20;64.60;;;;;;5109514;27;43909;-69
2022/08/01 05:26:10;;;;;;;1.07;1.07;;;25.10;64.60;;;;;;5109924;27;43859;-70
2022/08/01 05:28:41;;;;;;;1.00;1.00;;;25.10;65.20;;;;;;5084239;27;43902;-70
2022/08/01 05:31:13;;;;;;;1.03;1.03;;;25.10;65.30;;;;;;5089830;27;43917;-70
2022/08/01 05:33:41;;;;;;;1.20;1.20;;;25.20;65.00;;;;;;5103964;27;43893;-69
2022/08/01 05:36:09;;;;;;;1.00;1.00;;;25.30;64.60;;;;;;5108857;27;44035;-69
2022/08/01 05:38:37;;;;;;;1.00;1.00;;;25.40;64.30;;;;;;5097570;27;43955;-70
2022/08/01 05:41:05;;;;;;;0.90;0.90;;;25.50;64.00;;;;;;5108613;27;43960;-69
2022/08/01 05:43:35;;;;;;;0.97;0.97;;;25.50;64.00;;;;;;5108989;27;43391;-70
2022/08/01 05:46:05;;;;;;;0.93;0.93;;;25.40;64.00;;;;;;5108353;27;43761;-69
2022/08/01 05:48:34;;;;;;;1.10;1.10;;;25.30;64.30;;;;;;5090049;27;43960;-70
2022/08/01 05:51:03;;;;;;;0.90;0.90;;;25.30;65.10;;;;;;5089446;27;43948;-69
2022/08/01 05:53:34;;;;;;;1.07;1.07;;;25.30;64.50;;;;;;5089393;27;43977;-69
2022/08/01 05:56:02;;;;;;;1.00;1.00;;;25.30;64.40;;;;;;5091676;27;43920;-69
2022/08/01 05:58:30;;;;;;;1.20;1.20;;;25.20;65.00;;;;;;5075558;27;43582;-69
2022/08/01 06:00:58;;;;;;;1.00;1.00;;;25.20;65.00;;;;;;5090873;27;43897;-69
2022/08/01 06:03:26;;;;;;;1.07;1.07;;;25.20;65.00;;;;;;5081881;27;45001;-69
2022/08/01 06:05:55;;;;;;;1.00;1.00;;;25.10;65.40;;;;;;5105113;27;43988;-70
2022/08/01 06:08:23;;;;;;;1.00;1.00;;;25.10;65.30;;;;;;5109303;27;44050;-69
2022/08/01 06:10:51;;;;;;;1.10;1.10;;;25.10;65.30;;;;;;5106306;27;43898;-69
2022/08/01 06:13:19;;;;;;;1.00;1.00;;;25.20;65.10;;;;;;5089234;27;43946;-70
2022/08/01 06:15:47;;;;;;;1.10;1.10;;;25.30;64.80;;;;;;5104970;27;43916;-69
2022/08/01 06:18:15;;;;;;;1.20;1.20;;;25.40;64.50;;;;;;5090495;27;44032;-69
2022/08/01 06:20:45;;;;;;;0.80;0.80;;;25.50;64.10;;;;;;5108243;27;44029;-69
2022/08/01 06:23:15;;;;;;;1.00;1.00;;;25.50;63.90;;;;;;5108408;27;43995;-68
2022/08/01 06:25:59;;;;;;;1.07;1.07;;;25.50;64.30;;;;;;5108576;27;43952;-70
2022/08/01 06:28:27;;;;;;;1.20;1.20;;;25.40;64.50;;;;;;5108923;27;43947;-69
2022/08/01 06:30:55;;;;;;;0.63;0.63;;;25.30;64.40;;;;;;5089762;27;47083;-69
2022/08/01 06:33:23;;;;;;;1.00;1.00;;;25.30;64.50;;;;;;5106753;27;43888;-69
2022/08/01 06:35:51;;;;;;;1.00;1.00;;;25.30;64.50;;;;;;5108644;27;43941;-69
2022/08/01 06:38:21;;;;;;;1.10;1.10;;;25.20;64.90;;;;;;5108987;27;43716;-70
2022/08/01 06:40:49;;;;;;;0.90;0.90;;;25.20;65.10;;;;;;5107969;27;44027;-69
2022/08/01 06:43:18;;;;;;;0.90;0.90;;;25.20;65.00;;;;;;5108332;27;44081;-69
2022/08/01 06:45:46;;;;;;;1.00;1.00;;;25.10;64.70;;;;;;5108484;27;43932;-69
2022/08/01 06:48:14;;;;;;;1.00;1.00;;;25.10;65.30;;;;;;5108727;27;43913;-70
2022/08/01 06:50:42;;;;;;;1.00;1.00;;;25.10;65.40;;;;;;5108216;27;43899;-69
2022/08/01 06:53:13;;;;;;;1.10;1.10;;;25.20;65.10;;;;;;5108220;27;43944;-70
2022/08/01 06:55:42;;;;;;;1.10;1.10;;;25.30;64.80;;;;;;5108144;27;43856;-69
2022/08/01 06:58:10;;;;;;;0.90;0.90;;;25.30;64.30;;;;;;5108522;27;43932;-69
2022/08/01 07:00:38;;;;;;;1.10;1.10;;;25.40;64.10;;;;;;5108021;27;43976;-68
2022/08/01 07:03:06;;;;;;;1.00;1.00;;;25.50;64.00;;;;;;5107702;27;43848;-69
2022/08/01 07:05:34;;;;;;;1.00;0.90;;;25.40;63.90;;;;;;5108125;27;43914;-69
2022/08/01 07:08:02;;;;;;;1.10;1.10;;;25.40;64.30;;;;;;5108178;27;43924;-71
2022/08/01 07:10:30;;;;;;;1.03;1.03;;;25.30;64.30;;;;;;5107669;27;44095;-70
2022/08/01 07:13:02;;;;;;;1.00;1.00;;;25.30;64.40;;;;;;5106408;27;43378;-69
2022/08/01 07:15:32;;;;;;;1.10;1.10;;;25.30;64.40;;;;;;5081755;27;44021;-69
2022/08/01 07:18:03;;;;;;;0.97;0.97;;;25.20;65.00;;;;;;5081544;27;43952;-70
2022/08/01 07:20:31;;;;;;;0.80;0.80;;;25.10;65.00;;;;;;5107305;27;43944;-70
2022/08/01 07:23:09;;;;;;;1.10;1.10;;;25.10;65.00;;;;;;5089387;27;44005;-70
2022/08/01 07:25:39;;;;;;;1.00;1.00;;;25.20;64.80;;;;;;5107597;27;43445;-69
2022/08/01 07:28:25;;;;;;;0.97;0.97;;;25.10;65.20;;;;;;5108552;27;43343;-69
2022/08/01 07:30:53;;;;;;;1.00;1.00;;;25.10;66.10;;;;;;5107257;27;43896;-69
2022/08/01 07:33:22;;;;;;;1.10;1.10;;;25.10;65.10;;;;;;5094381;27;44309;-68
2022/08/01 07:35:50;;;;;;;1.10;1.10;;;25.20;64.70;;;;;;5107834;27;43998;-69
2022/08/01 07:38:18;;;;;;;1.10;1.10;;;25.30;63.00;;;;;;5091652;27;43988;-69
2022/08/01 07:40:48;;;;;;;4.00;1.10;;;25.40;61.50;;;;;;5069434;28;45489;-69
2022/08/01 07:43:16;;;;;;;1.10;1.10;;;25.40;61.10;;;;;;5107389;27;44006;-69
2022/08/01 07:45:45;;;;;;;1.23;1.07;;;25.30;61.80;;;;;;5107571;27;44411;-69
2022/08/01 07:48:13;;;;;;;0.93;0.90;;;25.30;61.50;;;;;;5081216;27;44151;-69
2022/08/01 07:50:41;;;;;;;0.80;0.80;;;25.20;61.20;;;;;;5080822;27;44967;-69
2022/08/01 07:53:10;;;;;;;0.93;0.83;;;25.20;61.60;;;;;;5058801;28;46148;-68
2022/08/01 07:55:38;;;;;;;1.23;0.93;;;25.20;62.00;;;;;;5081004;27;43425;-68
2022/08/01 07:58:06;;;;;;;1.53;0.80;;;25.10;61.70;;;;;;5087930;27;43335;-70
2022/08/01 08:00:34;;;;;;;1.10;1.10;;;25.10;62.20;;;;;;5087237;27;44011;-69
2022/08/01 08:03:04;;;;;;;1.00;1.00;;;25.00;61.60;;;;;;5080702;27;43340;-69
2022/08/01 08:05:32;;;;;;;1.10;1.10;;;25.00;61.90;;;;;;5101158;27;44041;-68
2022/08/01 08:08:20;;;;;;;1.70;0.90;;;25.00;61.90;;;;;;5107749;27;44465;-68
2022/08/01 08:10:48;;;;;;;2.50;0.93;;;25.00;61.10;;;;;;5106899;27;45042;-69
2022/08/01 08:13:17;;;;;;;0.70;0.70;;;25.10;60.50;;;;;;5107034;27;44023;-69
2022/08/01 08:15:45;;;;;;;0.90;0.90;;;25.20;60.10;;;;;;5088884;27;43391;-68
2022/08/01 08:18:17;;;;;;;0.70;0.70;;;25.30;59.60;;;;;;5089077;27;43973;-67
2022/08/01 08:20:45;;;;;;;0.70;0.70;;;25.40;59.90;;;;;;5103328;27;43968;-69
2022/08/01 08:26:10;;;;;;;0.97;0.70;;;25.40;59.80;;;;;;5082628;27;43910;-68
2022/08/01 08:28:38;;;;;;;3.00;0.70;;;25.30;59.10;;;;;;5110139;27;43486;-68
2022/08/01 08:31:07;;;;;;;0.80;0.80;;;25.30;59.60;;;;;;5090924;27;44056;-68
2022/08/01 08:33:56;;;;;;;0.90;0.90;;;25.30;59.90;;;;;;5090447;27;44079;-69
2022/08/01 08:36:24;;;;;;;1.10;1.00;;;25.30;59.90;;;;;;5072306;28;43956;-68
2022/08/01 08:39:00;;;;;;;0.80;0.80;;;25.30;59.40;;;;;;5090967;27;43994;-67
2022/08/01 08:41:28;;;;;;;0.70;0.70;;;25.30;59.60;;;;;;5095082;27;43909;-69
2022/08/01 08:44:05;;;;;;;0.60;0.60;;;25.30;60.50;;;;;;5096435;27;43820;-68
2022/08/01 08:46:41;;;;;;;2.80;1.00;;;25.30;60.30;;;;;;5090299;27;43924;-68
2022/08/01 08:49:10;;;;;;;0.90;0.90;;;25.30;59.50;;;;;;5091766;27;43959;-69
2022/08/01 08:51:39;;;;;;;0.80;0.80;;;25.30;59.10;;;;;;5110049;27;43958;-69
2022/08/01 08:54:10;;;;;;;0.90;0.90;;;25.40;58.80;;;;;;5109569;27;44026;-69
2022/08/01 08:56:38;;;;;;;0.87;0.87;;;25.50;58.60;;;;;;5109998;27;43919;-68
2022/08/01 08:59:06;;;;;;;1.13;1.00;;;25.60;58.50;;;;;;5110276;27;43539;-68
2022/08/01 09:01:34;;;;;;;0.90;0.90;;;25.60;58.60;;;;;;5107405;27;43939;-69
2022/08/01 09:04:03;;;;;;;4.73;1.10;;;25.60;58.80;;;;;;5109915;27;43919;-69
2022/08/01 09:06:33;;;;;;;1.53;1.00;;;25.60;58.90;;;;;;5109852;27;43970;-69
2022/08/01 09:09:01;;;;;;;4.67;1.10;;;25.60;58.80;;;;;;5110293;27;44073;-69
2022/08/01 09:11:29;;;;;;;1.13;1.10;;;25.50;59.20;;;;;;5109677;27;44670;-68
2022/08/01 09:14:08;;;;;;;3.13;1.30;;;25.50;59.70;;;;;;5109458;27;44028;-70
2022/08/01 09:16:37;;;;;;;13.77;1.80;;;25.50;59.90;;;;;;5109773;27;43425;-73
2022/08/01 09:19:09;;;;;;;57.57;3.03;;;25.50;61.70;;;;;;5110077;27;43986;-72
2022/08/01 09:21:59;;;;;;;30.93;3.40;;;25.50;62.40;;;;;;5102941;27;44112;-71
2022/08/01 09:24:29;;;;;;;31.45;2.75;;;25.50;63.70;;;;;;5109540;27;43920;-71
2022/08/01 09:27:00;;;;;;;24.30;2.60;;;25.50;63.70;;;;;;5109986;27;44012;-71
2022/08/01 09:29:32;;;;;;;50.42;3.25;;;25.50;61.60;;;;;;5109861;27;43985;-72
2022/08/01 09:32:06;;;;;;;56.63;4.47;;;25.60;60.60;;;;;;5108483;27;44046;-72
2022/08/01 09:34:35;;;;;;;66.93;4.88;;;25.60;59.90;;;;;;5109964;27;43929;-71
2022/08/01 09:37:05;;;;;;;58.77;4.67;;;25.80;59.60;;;;;;5108446;27;43959;-72
2022/08/01 09:39:37;;;;;;;38.70;3.50;;;25.90;59.30;;;;;;5109947;27;43949;-73
2022/08/01 09:42:20;;;;;;;39.67;3.63;;;25.90;59.50;;;;;;5108550;27;44003;-73
2022/08/01 09:44:56;;;;;;;24.95;3.28;;;25.90;59.30;;;;;;5084394;27;43869;-72
2022/08/01 09:47:24;;;;;;;16.98;2.63;;;25.80;59.50;;;;;;5070990;27;43934;-72
2022/08/01 09:49:57;;;;;;;9.43;2.07;;;25.80;59.50;;;;;;5104336;27;43873;-71
2022/08/01 09:52:28;;;;;;;11.07;2.17;;;25.80;59.60;;;;;;5108890;27;44014;-72
2022/08/01 09:54:57;;;;;;;7.32;1.88;;;25.70;59.90;;;;;;5090422;27;44749;-73
2022/08/01 09:57:25;;;;;;;3.87;1.70;;;25.70;60.30;;;;;;5109496;27;44099;-72
2022/08/01 09:59:54;;;;;;;9.43;2.03;;;25.60;59.80;;;;;;5109593;27;43363;-72
2022/08/01 10:02:30;;;;;;;6.55;1.73;;;25.70;59.80;;;;;;5090412;27;45801;-72
2022/08/01 10:04:58;;;;;;;17.98;2.50;;;25.80;59.40;;;;;;5090261;27;44513;-72
2022/08/01 10:07:36;;;;;;;16.27;2.10;;;25.90;58.80;;;;;;5108956;27;43905;-71
2022/08/01 10:10:14;;;;;;;8.90;1.73;;;25.90;58.60;;;;;;5109375;27;44013;-72
2022/08/01 10:12:43;;;;;;;5.40;1.67;;;25.90;58.60;;;;;;5108785;27;43974;-72
2022/08/01 10:15:13;;;;;;;8.80;2.00;;;25.90;59.00;;;;;;5090342;27;44673;-72
2022/08/01 10:17:41;;;;;;;5.18;2.08;;;25.80;58.70;;;;;;5082322;27;43933;-72
2022/08/01 10:20:20;;;;;;;3.25;1.80;;;25.80;58.70;;;;;;5084359;27;44053;-72
2022/08/01 10:23:01;;;;;;;4.03;1.80;;;25.70;58.70;;;;;;5091626;27;43978;-72
2022/08/01 10:25:37;;;;;;;1.53;1.43;;;25.70;59.20;;;;;;5108720;27;43941;-71
2022/08/01 10:28:14;;;;;;;2.28;1.48;;;25.60;59.20;;;;;;5109032;27;43761;-71
2022/08/01 10:30:45;;;;;;;2.50;1.67;;;25.60;58.80;;;;;;5090220;27;43912;-73
2022/08/01 10:33:18;;;;;;;1.50;1.40;;;25.60;58.70;;;;;;5108330;27;43929;-71
2022/08/01 10:36:06;;;;;;;2.13;1.40;;;25.60;59.30;;;;;;5108441;27;44167;-72
2022/08/01 10:38:36;;;;;;;3.83;2.20;;;25.60;59.50;;;;;;5099368;27;44012;-73
2022/08/01 10:41:05;;;;;;;4.70;1.80;;;25.50;59.00;;;;;;5070413;27;43911;-71
2022/08/01 10:43:36;;;;;;;1.60;1.50;;;25.60;60.00;;;;;;5095442;27;44364;-72
2022/08/01 10:46:04;;;;;;;3.97;1.67;;;25.70;59.20;;;;;;5088255;27;43320;-72
2022/08/01 10:48:36;;;;;;;1.53;1.50;;;25.80;59.90;;;;;;5097717;27;43988;-72
2022/08/01 10:51:08;;;;;;;1.70;1.60;;;25.90;59.40;;;;;;5105336;27;43899;-72
2022/08/01 10:53:52;;;;;;;2.83;1.50;;;25.90;59.40;;;;;;5108637;27;44016;-72
2022/08/01 10:56:21;;;;;;;1.60;1.60;;;25.90;59.50;;;;;;5082164;27;43897;-73
2022/08/01 10:59:01;;;;;;;1.37;1.37;;;25.90;59.80;;;;;;5088862;27;43999;-73
2022/08/01 11:01:38;;;;;;;1.50;1.40;;;25.80;60.60;;;;;;5089011;27;43355;-72
2022/08/01 11:04:15;;;;;;;1.23;1.23;;;25.70;60.70;;;;;;5088415;27;44083;-72
2022/08/01 11:06:54;;;;;;;1.50;1.40;;;25.60;60.50;;;;;;5088388;27;43974;-72
2022/08/01 11:09:25;;;;;;;1.30;1.20;;;25.60;61.10;;;;;;5107558;27;43410;-72
2022/08/01 11:12:07;;;;;;;1.40;1.30;;;25.50;61.70;;;;;;5108456;27;43578;-72
2022/08/01 11:15:24;;;;;;;1.33;1.30;;;25.50;61.70;;;;;;5100379;27;44068;-72
2022/08/01 11:17:58;;;;;;;1.23;1.23;;;25.50;62.00;;;;;;5088154;27;43836;-71
2022/08/01 11:20:29;;;;;;;1.30;1.30;;;25.40;62.40;;;;;;5088327;27;43987;-72
2022/08/01 11:23:28;;;;;;;1.20;1.20;;;25.40;62.50;;;;;;5107186;27;44051;-72
2022/08/01 11:26:14;;;;;;;1.47;1.37;;;25.40;62.30;;;;;;5091064;27;44225;-72
2022/08/01 11:28:46;;;;;;;1.40;1.40;;;25.50;62.00;;;;;;5101039;27;43925;-72
2022/08/01 11:31:35;;;;;;;1.87;1.17;;;25.60;61.60;;;;;;5084557;27;44062;-72
2022/08/01 11:34:04;;;;;;;1.20;1.10;;;25.70;61.40;;;;;;5088393;27;43931;-71
2022/08/01 11:36:32;;;;;;;1.67;1.23;;;25.70;61.20;;;;;;5090931;27;44327;-72
2022/08/01 11:39:20;;;;;;;2.70;1.30;;;25.60;61.40;;;;;;5107890;27;43983;-72
2022/08/01 11:41:50;;;;;;;1.90;1.40;;;25.60;60.80;;;;;;5088108;27;43942;-72
2022/08/01 11:44:19;;;;;;;1.83;1.27;;;25.60;60.80;;;;;;5088661;27;43479;-72
2022/08/01 11:46:58;;;;;;;1.97;1.23;;;25.60;61.10;;;;;;5087995;27;43612;-72
2022/08/01 11:49:29;;;;;;;2.23;1.33;;;25.60;61.30;;;;;;5087753;27;43833;-73
2022/08/01 11:51:58;;;;;;;1.20;1.10;;;25.50;61.40;;;;;;5089168;27;44022;-73
2022/08/01 11:54:28;;;;;;;1.03;1.03;;;25.50;62.10;;;;;;5107755;27;43773;-72
2022/08/01 11:57:05;;;;;;;1.00;1.00;;;25.50;62.30;;;;;;5107114;27;43969;-72
2022/08/01 11:59:39;;;;;;;1.57;1.10;;;25.50;62.00;;;;;;5106644;27;44018;-72
2022/08/01 12:02:20;;;;;;;1.40;1.30;;;25.60;61.70;;;;;;5102519;27;44056;-72
2022/08/01 12:04:58;;;;;;;1.10;1.10;;;25.70;61.40;;;;;;5076199;27;44246;-71
2022/08/01 12:07:29;;;;;;;1.10;1.10;;;25.80;61.30;;;;;;5107172;27;43963;-71
2022/08/01 12:10:00;;;;;;;1.17;1.17;;;25.70;61.20;;;;;;5107198;27;43301;-71
2022/08/01 12:12:30;;;;;;;1.20;1.20;;;25.70;61.90;;;;;;5088423;27;43992;-73
2022/08/01 12:14:59;;;;;;;1.77;1.20;;;25.60;62.00;;;;;;5107337;27;44003;-71
2022/08/01 12:17:34;;;;;;;1.13;1.13;;;25.60;62.00;;;;;;5106980;27;44306;-72
2022/08/01 12:20:03;;;;;;;1.27;1.20;;;25.60;62.00;;;;;;5106971;27;44035;-73
2022/08/01 12:22:31;;;;;;;1.07;1.07;;;25.50;62.40;;;;;;5088349;27;43442;-72
2022/08/01 12:25:06;;;;;;;1.53;1.17;;;25.40;63.70;;;;;;5107358;27;44185;-71
2022/08/01 12:27:35;;;;;;;1.03;1.00;;;25.40;63.00;;;;;;5088438;27;45895;-72
2022/08/01 12:30:06;;;;;;;1.20;1.20;;;25.40;62.90;;;;;;5106733;27;43925;-72
2022/08/01 12:32:36;;;;;;;0.93;0.93;;;25.30;62.90;;;;;;5107079;27;44122;-72
2022/08/01 12:35:05;;;;;;;1.20;1.20;;;25.30;63.40;;;;;;5088560;27;44081;-72
2022/08/01 12:37:35;;;;;;;1.30;1.30;;;25.30;63.60;;;;;;5106693;27;43913;-73
2022/08/01 12:40:07;;;;;;;2.27;1.17;;;25.30;63.20;;;;;;5106515;27;44041;-72
2022/08/01 12:42:39;;;;;;;1.03;1.00;;;25.40;62.80;;;;;;5106210;27;43464;-71
2022/08/01 12:45:10;;;;;;;0.93;0.90;;;25.50;62.40;;;;;;5088609;27;43590;-72
2022/08/01 12:47:38;;;;;;;1.23;1.13;;;25.60;62.20;;;;;;5080267;27;44831;-71
2022/08/01 12:50:07;;;;;;;1.07;0.97;;;25.60;62.10;;;;;;5080277;27;43383;-72
2022/08/01 12:52:35;;;;;;;1.02;1.02;;;25.60;62.40;;;;;;5079841;27;44318;-72
2022/08/01 12:55:13;;;;;;;1.43;1.17;;;25.50;62.90;;;;;;5080689;27;44033;-72
2022/08/01 12:57:44;;;;;;;1.60;1.00;;;25.50;62.80;;;;;;5081733;27;43763;-72
2022/08/01 13:00:17;;;;;;;1.23;1.20;;;25.50;62.80;;;;;;5086864;27;44255;-71
2022/08/01 13:02:46;;;;;;;1.70;1.00;;;25.40;62.90;;;;;;5087379;27;43968;-73
2022/08/01 13:05:14;;;;;;;1.00;1.00;;;25.40;63.50;;;;;;5085157;27;43897;-72
2022/08/01 13:07:45;;;;;;;1.00;1.00;;;25.30;63.50;;;;;;5086028;27;45246;-72